首页
METAR-TAF:

METAR-TAF

机场 :

曼哈頓下城直升機場

纽约, 紐約州, 美国

纬度: 40-42-04N, 经度: 074-00-32W, 海拔: 2米

当前天气观测

该预报发布于39分钟前的12:56 UTC
静风
温度 21°C
湿度 100%
气压 1015 hPa
能見度: 14.5公里
阴天层高于700英尺

METAR: KJRB 181256Z AUTO 00000KT 9SM OVC007 21/21 A2996 RMK AO2 SLP144 T02110206

时间: 09:35 (13:35 UTC)


TAF: 丢失

超过4000个机场的气象观测和天气预报(METAR&TAF报告)。

可查询的气象台以黄色和红色小点在地图上表示。

将鼠标移到小点上方,可查看气象台名称。

然后点击查看天气观测和预报。

如需切换地图:点击带黑十字的绿色按钮放大地图;点击带横线的绿色按钮缩小地图;或者点击绿色箭头查看邻近地区的地图。


METAR-TAF: